Time;durP1;ratioP1;P1;durP2;ratioP2;P2;SDS_P1;SDS_P2;PMS_P1;PMS_P2;Temp;Humidity;BMP_temperature;BMP_pressure;BME280_temperature;BME280_humidity;BME280_pressure;Samples;Min_cycle;Max_cycle;Signal;HPM_P1;HPM_P2
2022/07/05 00:04:30;;;;;;;3.55;2.42;;;;;;;14.40;100.00;96887.97;10332118;28;20201;-54
2022/07/05 00:09:31;;;;;;;4.40;2.35;;;;;;;14.33;100.00;96890.47;10331577;28;20225;-53
2022/07/05 00:14:31;;;;;;;3.38;2.58;;;;;;;14.30;100.00;96888.19;10331786;28;20244;-54
2022/07/05 00:19:32;;;;;;;3.85;2.58;;;;;;;14.26;100.00;96900.09;10331419;28;20217;-52
2022/07/05 00:24:32;;;;;;;9.27;2.15;;;;;;;14.13;100.00;96887.47;10331150;28;20224;-53
2022/07/05 00:29:33;;;;;;;7.32;2.50;;;;;;;14.11;100.00;96889.47;10330763;28;20277;-53
2022/07/05 00:34:33;;;;;;;8.82;2.40;;;;;;;13.95;100.00;96887.78;10329027;28;20730;-55
2022/07/05 00:39:33;;;;;;;3.25;2.60;;;;;;;13.86;100.00;96871.19;10330582;28;20210;-53
2022/07/05 00:44:37;;;;;;;4.10;2.30;;;;;;;13.83;100.00;96868.91;10330294;28;20648;-54
2022/07/05 00:49:38;;;;;;;2.75;2.38;;;;;;;13.77;100.00;96881.91;10330442;28;20212;-54
2022/07/05 00:54:39;;;;;;;3.83;2.35;;;;;;;13.65;100.00;96873.63;10330137;28;20206;-51
2022/07/05 00:59:39;;;;;;;3.47;2.28;;;;;;;13.59;100.00;96871.66;10329140;28;20221;-57
2022/07/05 01:04:40;;;;;;;2.70;2.08;;;;;;;13.43;100.00;96873.38;10329878;28;20669;-51
2022/07/05 01:09:40;;;;;;;4.00;2.65;;;;;;;13.43;100.00;96875.16;10329354;28;20569;-53
2022/07/05 01:14:41;;;;;;;5.30;2.80;;;;;;;13.45;100.00;96875.84;10329833;28;20571;-54
2022/07/05 01:19:41;;;;;;;4.55;2.22;;;;;;;13.36;100.00;96880.31;10329176;28;20206;-55
2022/07/05 01:24:42;;;;;;;4.32;2.72;;;;;;;13.30;100.00;96884.38;10329382;28;20197;-54
2022/07/05 01:29:42;;;;;;;3.17;2.42;;;;;;;13.26;100.00;96882.28;10327212;28;20247;-56
2022/07/05 01:34:43;;;;;;;9.85;3.20;;;;;;;13.13;100.00;96886.25;10326662;28;20198;-52
2022/07/05 01:39:44;;;;;;;3.78;2.38;;;;;;;13.14;100.00;96881.78;10327615;28;20305;-54
2022/07/05 01:44:44;;;;;;;2.58;2.38;;;;;;;13.15;100.00;96881.63;10327102;28;20198;-52
2022/07/05 01:49:46;;;;;;;4.13;2.40;;;;;;;13.10;100.00;96885.78;10328503;28;20707;-54
2022/07/05 01:54:47;;;;;;;2.75;2.53;;;;;;;13.07;100.00;96878.22;10327249;28;20198;-52
2022/07/05 01:59:47;;;;;;;3.60;2.63;;;;;;;12.91;100.00;96877.25;10328163;28;20221;-54
2022/07/05 02:04:48;;;;;;;3.35;2.28;;;;;;;12.82;100.00;96868.56;10328297;28;20271;-56
2022/07/05 02:09:49;;;;;;;3.53;2.50;;;;;;;12.73;100.00;96874.81;10332601;28;20696;-55
2022/07/05 02:14:49;;;;;;;3.38;2.40;;;;;;;12.57;100.00;96882.72;10336408;28;20182;-56
2022/07/05 02:19:53;;;;;;;2.90;2.42;;;;;;;12.55;100.00;96874.19;10334466;28;20225;-57
2022/07/05 02:24:54;;;;;;;3.30;2.40;;;;;;;12.47;100.00;96883.69;10335839;28;20217;-58
2022/07/05 02:29:57;;;;;;;4.22;2.70;;;;;;;12.42;100.00;96878.13;10334191;28;20320;-58
2022/07/05 02:35:08;;;;;;;2.30;2.10;;;;;;;12.37;100.00;96879.59;10333800;28;20288;-54
2022/07/05 02:40:13;;;;;;;3.55;2.10;;;;;;;12.33;100.00;96879.09;10334062;28;20272;-52
2022/07/05 02:45:17;;;;;;;5.80;2.33;;;;;;;12.18;100.00;96880.72;10335162;28;20217;-53
2022/07/05 02:50:20;;;;;;;3.88;2.83;;;;;;;12.20;100.00;96879.56;10333669;28;20652;-52
2022/07/05 02:55:24;;;;;;;6.93;2.67;;;;;;;12.08;100.00;96880.88;10333380;28;20235;-58
2022/07/05 03:00:26;;;;;;;2.80;2.45;;;;;;;12.04;100.00;96885.63;10333211;28;20688;-55
2022/07/05 03:05:28;;;;;;;3.93;2.57;;;;;;;11.97;100.00;96895.13;10362173;28;20686;-56
2022/07/05 03:10:34;;;;;;;3.35;2.50;;;;;;;11.97;100.00;96899.56;10374429;28;20684;-57
2022/07/05 03:15:37;;;;;;;6.95;2.28;;;;;;;11.97;100.00;96902.19;10373564;28;20276;-57
2022/07/05 03:20:38;;;;;;;4.57;2.20;;;;;;;11.96;100.00;96901.38;10372528;28;20185;-52
2022/07/05 03:25:38;;;;;;;4.38;2.40;;;;;;;12.02;100.00;96908.59;10372858;28;20217;-54
2022/07/05 03:30:40;;;;;;;3.47;2.30;;;;;;;12.03;100.00;96912.84;10401054;22;20293;-54
2022/07/05 03:35:41;;;;;;;3.47;2.70;;;;;;;12.03;100.00;96912.03;10455941;28;20539;-53
2022/07/05 03:40:42;;;;;;;5.70;2.72;;;;;;;12.03;100.00;96907.59;10456224;28;20234;-54
2022/07/05 03:45:43;;;;;;;6.03;2.65;;;;;;;12.09;100.00;96922.72;10455651;28;20219;-55
2022/07/05 03:50:44;;;;;;;4.00;2.60;;;;;;;12.07;100.00;96921.25;10455822;28;20207;-53
2022/07/05 03:55:44;;;;;;;4.60;2.30;;;;;;;12.09;100.00;96920.09;10455322;28;20176;-59
2022/07/05 04:00:45;;;;;;;2.55;2.35;;;;;;;12.16;100.00;96924.69;10455042;28;20690;-54
2022/07/05 04:05:49;;;;;;;2.40;2.20;;;;;;;12.25;100.00;96926.34;10453636;28;20219;-53
2022/07/05 04:10:50;;;;;;;3.70;2.30;;;;;;;12.38;100.00;96936.41;10453344;28;20299;-59
2022/07/05 04:15:55;;;;;;;3.40;2.60;;;;;;;12.55;100.00;96932.00;10453700;28;20190;-58
2022/07/05 04:20:55;;;;;;;3.97;2.10;;;;;;;12.61;100.00;96918.19;10452952;28;20281;-58
2022/07/05 04:25:56;;;;;;;2.45;2.25;;;;;;;12.80;100.00;96920.50;10452802;28;20270;-58
2022/07/05 04:31:04;;;;;;;2.88;2.30;;;;;;;12.87;100.00;96931.16;10452042;28;20659;-58
2022/07/05 04:36:09;;;;;;;4.32;2.10;;;;;;;13.02;100.00;96934.75;10451642;28;20214;-59
2022/07/05 04:41:10;;;;;;;2.40;2.10;;;;;;;13.12;100.00;96921.41;10452235;28;20278;-57
2022/07/05 04:46:12;;;;;;;2.88;2.10;;;;;;;13.31;100.00;96927.31;10452105;28;20216;-53
2022/07/05 04:51:13;;;;;;;5.90;2.30;;;;;;;13.54;100.00;96936.16;10452045;28;20234;-58
2022/07/05 04:56:14;;;;;;;3.35;2.05;;;;;;;13.85;100.00;96930.13;10451734;28;20258;-59
2022/07/05 05:01:15;;;;;;;3.53;2.38;;;;;;;14.09;100.00;96936.28;10452956;28;20782;-54
2022/07/05 05:06:15;;;;;;;2.03;1.85;;;;;;;14.12;100.00;96933.28;10452604;28;20690;-53
2022/07/05 05:11:15;;;;;;;5.68;2.33;;;;;;;14.34;100.00;96928.22;10452669;28;20871;-54
2022/07/05 05:16:16;;;;;;;1.80;1.70;;;;;;;14.48;100.00;96931.91;10452573;28;20616;-57
2022/07/05 05:21:16;;;;;;;4.90;2.00;;;;;;;14.65;100.00;96922.09;10453449;28;20595;-60
2022/07/05 05:26:17;;;;;;;2.08;1.83;;;;;;;14.94;100.00;96923.97;10452092;28;20223;-60
2022/07/05 05:31:18;;;;;;;3.45;2.00;;;;;;;14.81;100.00;96924.59;10452175;28;20330;-59
2022/07/05 05:36:19;;;;;;;2.05;1.75;;;;;;;15.16;100.00;96925.75;10451246;28;20188;-59
2022/07/05 05:41:19;;;;;;;2.42;1.90;;;;;;;15.46;100.00;96917.03;10452031;28;20215;-59
2022/07/05 05:46:19;;;;;;;6.28;1.95;;;;;;;15.98;97.47;96916.09;10459037;28;20765;-61
2022/07/05 05:51:20;;;;;;;5.07;1.67;;;;;;;16.36;95.45;96905.31;10460286;28;20583;-60
2022/07/05 05:56:20;;;;;;;4.18;1.70;;;;;;;16.88;90.67;96889.31;10460156;28;20685;-60
2022/07/05 06:01:20;;;;;;;2.85;1.77;;;;;;;17.51;86.54;96891.97;10459717;28;20612;-61
2022/07/05 06:06:21;;;;;;;3.08;1.38;;;;;;;18.15;81.99;96866.13;10459899;28;20694;-59
2022/07/05 06:11:21;;;;;;;5.32;1.70;;;;;;;18.57;81.75;96887.22;10459147;28;20627;-59
2022/07/05 06:16:21;;;;;;;3.17;2.30;;;;;;;19.42;78.99;96876.75;10456623;28;20196;-58
2022/07/05 06:21:22;;;;;;;3.22;1.90;;;;;;;20.06;74.88;96848.50;10453058;28;20246;-60
2022/07/05 06:26:22;;;;;;;2.05;1.23;;;;;;;20.82;65.54;96742.06;10417579;28;20212;-61
2022/07/05 06:31:22;;;;;;;2.05;1.10;;;;;;;21.92;60.09;96693.09;10417627;28;20341;-61
2022/07/05 06:36:23;;;;;;;1.33;1.17;;;;;;;22.40;57.90;96682.50;10416219;28;20568;-61
2022/07/05 06:41:23;;;;;;;4.78;1.23;;;;;;;23.25;55.06;96653.56;10431406;28;20642;-58
2022/07/05 06:46:23;;;;;;;2.08;1.00;;;;;;;23.82;55.24;96685.56;10433502;28;20668;-60
2022/07/05 06:51:24;;;;;;;1.90;0.93;;;;;;;23.68;54.71;96689.63;10439575;28;20551;-62
2022/07/05 06:56:24;;;;;;;3.72;1.05;;;;;;;24.09;51.18;96614.56;10434245;28;20858;-60
2022/07/05 07:01:25;;;;;;;5.43;1.03;;;;;;;24.93;49.08;96592.94;10436697;28;20314;-61
2022/07/05 07:06:25;;;;;;;1.57;0.80;;;;;;;26.65;42.44;96481.13;10455850;28;20474;-62
2022/07/05 07:11:26;;;;;;;1.98;0.85;;;;;;;27.28;42.40;96531.25;10455214;28;20476;-62
2022/07/05 07:16:27;;;;;;;4.60;0.90;;;;;;;26.07;46.63;96604.69;10453650;28;20203;-62
2022/07/05 07:21:27;;;;;;;2.30;0.80;;;;;;;26.09;43.55;96538.13;10453969;28;20239;-63
2022/07/05 07:26:27;;;;;;;2.33;1.02;;;;;;;26.33;43.68;96565.38;10454819;28;20255;-61
2022/07/05 07:31:28;;;;;;;1.90;0.90;;;;;;;26.46;43.87;96561.38;10455014;28;20597;-60
2022/07/05 07:36:28;;;;;;;3.30;0.90;;;;;;;26.45;41.35;96495.31;10453187;28;20207;-59
2022/07/05 07:41:28;;;;;;;1.63;0.97;;;;;;;25.99;43.10;96539.69;10448661;28;20467;-59
2022/07/05 07:46:29;;;;;;;4.63;1.47;;;;;;;24.95;45.84;96573.09;10431575;28;20561;-55
2022/07/05 07:51:29;;;;;;;1.70;0.75;;;;;;;26.96;39.58;96479.31;10450627;28;20465;-56
2022/07/05 07:56:30;;;;;;;2.33;0.90;;;;;;;25.82;42.52;96525.59;10451853;28;20705;-58
2022/07/05 08:01:31;;;;;;;3.25;0.90;;;;;;;24.73;44.60;96544.47;10452487;28;20219;-53
2022/07/05 08:06:31;;;;;;;3.10;0.75;;;;;;;25.38;44.72;96585.63;10451176;28;20310;-57
2022/07/05 08:11:31;;;;;;;0.75;0.75;;;;;;;25.31;42.04;96490.34;10452205;28;20777;-55
2022/07/05 08:16:32;;;;;;;3.80;0.80;;;;;;;26.90;41.81;96569.09;10452591;28;20918;-60
2022/07/05 08:21:37;;;;;;;1.85;0.77;;;;;;;27.88;39.37;96516.16;10452990;28;20988;-60
2022/07/05 08:26:38;;;;;;;2.38;1.10;;;;;;;27.44;41.14;96559.00;10449943;28;20402;-59
2022/07/05 08:31:41;;;;;;;3.72;0.90;;;;;;;27.17;40.58;96533.13;10428640;28;20234;-59
2022/07/05 08:36:41;;;;;;;6.32;0.90;;;;;;;27.71;40.28;96539.88;10414971;28;20288;-59
2022/07/05 08:41:43;;;;;;;1.27;0.75;;;;;;;26.73;41.61;96544.34;10448422;28;20306;-59
2022/07/05 08:46:44;;;;;;;6.43;1.20;;;;;;;26.74;40.84;96538.69;10450653;28;20593;-60
2022/07/05 08:51:44;;;;;;;2.05;0.93;;;;;;;25.95;42.46;96548.47;10450695;28;20212;-60
2022/07/05 08:56:45;;;;;;;2.28;0.77;;;;;;;27.56;38.82;96511.09;10451808;28;20191;-60
2022/07/05 09:01:46;;;;;;;2.58;0.80;;;;;;;26.69;40.51;96520.69;10451300;28;20214;-57
2022/07/05 09:06:48;;;;;;;2.97;0.90;;;;;;;26.97;40.45;96521.28;10451008;28;20224;-60
2022/07/05 09:11:48;;;;;;;0.70;0.70;;;;;;;27.82;37.58;96473.38;10450529;28;20212;-57
2022/07/05 09:16:49;;;;;;;2.38;1.00;;;;;;;27.40;39.06;96496.84;10446492;28;20195;-57
2022/07/05 09:22:01;;;;;;;2.50;0.88;;;;;;;29.17;38.25;96547.97;10447138;28;20207;-57
2022/07/05 09:27:03;;;;;;;1.15;0.80;;;;;;;28.58;37.70;96490.34;10447198;28;20332;-59
2022/07/05 09:32:04;;;;;;;2.35;0.98;;;;;;;28.37;35.60;96419.59;10447386;28;20242;-57
2022/07/05 09:37:05;;;;;;;3.28;1.00;;;;;;;29.64;36.24;96499.88;10456194;23;20251;-55
2022/07/05 09:42:23;;;;;;;2.47;1.00;;;;;;;29.33;35.31;96463.16;10404489;28;20197;-55
2022/07/05 09:47:26;;;;;;;1.02;0.63;;;;;;;30.06;35.03;96488.38;10406792;28;20290;-57
2022/07/05 09:52:34;;;;;;;1.75;1.10;;;;;;;29.81;34.97;96472.47;10406201;28;20192;-57
2022/07/05 09:57:38;;;;;;;2.13;0.80;;;;;;;28.91;35.66;96436.78;10405892;28;20243;-60
2022/07/05 10:02:39;;;;;;;1.70;0.80;;;;;;;29.10;35.13;96448.50;10405755;28;20204;-59
2022/07/05 10:07:50;;;;;;;2.35;1.00;;;;;;;28.51;35.15;96414.38;10406252;28;20242;-59
2022/07/05 10:12:52;;;;;;;1.23;0.80;;;;;;;27.34;38.87;96504.09;10405424;28;20197;-59
2022/07/05 10:17:55;;;;;;;2.50;0.70;;;;;;;28.06;36.78;96458.25;10386561;28;20215;-59
2022/07/05 10:22:56;;;;;;;4.03;0.63;;;;;;;29.12;34.67;96451.72;10375260;28;20192;-59
2022/07/05 10:27:58;;;;;;;3.33;0.80;;;;;;;28.72;35.66;96469.00;10378711;28;20221;-59
2022/07/05 10:32:59;;;;;;;4.45;1.00;;;;;;;27.72;37.00;96469.63;10380422;28;20186;-58
2022/07/05 10:38:01;;;;;;;1.52;0.70;;;;;;;28.87;36.27;96503.13;10379248;28;20734;-58
2022/07/05 10:43:02;;;;;;;2.13;0.90;;;;;;;29.06;36.64;96511.38;10412352;28;20275;-60
2022/07/05 10:48:24;;;;;;;2.10;1.02;;;;;;;28.52;36.32;96478.00;10411234;28;20220;-59
2022/07/05 10:53:49;;;;;;;1.13;0.80;;;;;;;28.77;35.39;96467.06;10412257;28;20201;-58
2022/07/05 10:59:09;;;;;;;1.38;0.73;;;;;;;27.95;36.98;96456.66;10411348;28;20244;-59
2022/07/05 11:04:21;;;;;;;7.45;1.20;;;;;;;28.40;36.91;96489.09;10411564;28;20191;-59
2022/07/05 11:09:21;;;;;;;2.03;0.70;;;;;;;28.89;34.43;96430.88;10410796;28;20228;-60
2022/07/05 11:14:21;;;;;;;4.90;0.73;;;;;;;28.98;36.02;96508.19;10411815;28;20200;-60
2022/07/05 11:19:22;;;;;;;2.35;0.90;;;;;;;28.57;36.82;96503.00;10391034;28;20208;-58
2022/07/05 11:24:24;;;;;;;1.23;0.50;;;;;;;30.06;34.85;96504.59;10411583;28;20715;-60
2022/07/05 11:29:44;;;;;;;1.25;0.73;;;;;;;28.93;35.97;96488.53;10392838;28;20649;-56
2022/07/05 11:34:52;;;;;;;2.58;0.77;;;;;;;28.49;36.99;96524.34;10410793;28;20223;-60
2022/07/05 11:40:05;;;;;;;1.02;0.90;;;;;;;29.81;35.80;96534.56;10409839;28;20240;-58
2022/07/05 11:45:05;;;;;;;2.50;0.65;;;;;;;29.51;34.46;96461.66;10409271;28;20205;-59
2022/07/05 11:50:06;;;;;;;2.83;0.68;;;;;;;29.13;34.88;96458.72;10407939;28;20827;-58
2022/07/05 11:55:11;;;;;;;4.60;0.70;;;;;;;29.24;36.16;96523.44;10399741;28;20983;-57
2022/07/05 12:00:12;;;;;;;3.35;0.60;;;;;;;30.39;33.17;96460.69;10367422;28;20603;-60
2022/07/05 12:05:15;;;;;;;2.42;0.70;;;;;;;31.20;32.02;96441.69;10368785;28;20213;-56
2022/07/05 12:15:36;;;;;;;7.25;0.98;;;;;;;31.15;32.04;96419.31;10367734;28;20197;-60
2022/07/05 12:20:37;;;;;;;2.50;0.80;;;;;;;31.38;30.83;96393.19;10367787;28;20687;-61
2022/07/05 12:25:38;;;;;;;1.45;0.57;;;;;;;31.24;31.62;96420.25;10398159;28;20220;-59
2022/07/05 12:30:38;;;;;;;2.05;0.85;;;;;;;30.02;32.91;96411.72;10408157;28;20586;-58
2022/07/05 12:35:40;;;;;;;4.40;0.88;;;;;;;29.84;35.00;96478.09;10408886;28;20191;-60
2022/07/05 12:40:43;;;;;;;1.25;0.80;;;;;;;31.42;31.86;96445.66;10407810;28;20986;-59
2022/07/05 12:46:01;;;;;;;1.05;0.75;;;;;;;31.69;32.12;96453.06;10408123;28;20331;-60
2022/07/05 12:51:03;;;;;;;1.75;0.70;;;;;;;30.09;32.70;96405.16;10407219;28;20232;-59
2022/07/05 13:01:32;;;;;;;3.15;0.60;;;;;;;30.42;33.62;96452.03;10407097;28;20196;-60
2022/07/05 13:06:50;;;;;;;2.50;0.70;;;;;;;31.09;31.62;96402.38;10407507;28;20224;-60
2022/07/05 13:11:50;;;;;;;1.00;0.70;;;;;;;31.08;32.04;96420.50;10407506;28;20271;-59
2022/07/05 13:16:50;;;;;;;3.30;0.80;;;;;;;30.86;32.86;96447.34;10407334;28;20351;-60
2022/07/05 13:21:51;;;;;;;0.80;0.80;;;;;;;30.64;31.73;96391.16;10407663;28;20427;-59
2022/07/05 13:26:51;;;;;;;6.20;0.80;;;;;;;29.16;33.18;96366.44;10405105;28;20475;-57
2022/07/05 13:31:52;;;;;;;4.78;0.82;;;;;;;28.22;35.14;96386.25;10407019;28;20569;-59
2022/07/05 13:36:53;;;;;;;6.60;1.00;;;;;;;29.05;34.20;96405.41;10406026;28;20726;-59
2022/07/05 13:41:54;;;;;;;4.75;0.98;;;;;;;30.89;31.72;96393.47;10405504;28;20980;-57
2022/07/05 13:46:55;;;;;;;5.68;1.10;;;;;;;33.57;28.15;96376.94;10405519;28;20220;-57
2022/07/05 13:51:56;;;;;;;1.70;0.90;;;;;;;33.18;30.20;96430.09;10387343;28;20578;-55
2022/07/05 13:56:56;;;;;;;1.98;0.70;;;;;;;35.05;27.28;96395.44;10406185;28;20481;-58
2022/07/05 14:01:57;;;;;;;2.13;0.70;;;;;;;34.27;27.36;96361.69;10400984;28;20287;-58
2022/07/05 14:06:57;;;;;;;1.33;0.77;;;;;;;33.33;28.61;96356.41;10411151;28;20505;-58
2022/07/05 14:11:57;;;;;;;1.98;0.70;;;;;;;34.96;26.77;96378.31;10414022;28;20196;-57
2022/07/05 14:16:58;;;;;;;2.33;0.77;;;;;;;33.36;27.79;96314.28;10427857;28;20218;-55
2022/07/05 14:21:58;;;;;;;1.70;0.70;;;;;;;30.90;30.55;96310.41;10413306;28;20287;-58
2022/07/05 14:26:59;;;;;;;4.57;0.80;;;;;;;33.14;28.20;96344.94;10412245;28;20485;-59
2022/07/05 14:31:59;;;;;;;1.80;0.80;;;;;;;34.95;26.87;96382.16;10435283;28;20450;-59
2022/07/05 14:36:59;;;;;;;2.20;0.80;;;;;;;36.33;24.50;96330.13;10412622;28;20481;-58
2022/07/05 14:42:00;;;;;;;1.13;0.65;;;;;;;34.12;27.07;96319.41;10412836;28;20199;-58
2022/07/05 14:47:00;;;;;;;2.83;0.80;;;;;;;33.62;27.74;96327.16;10412459;28;20232;-59
2022/07/05 14:52:00;;;;;;;2.40;0.97;;;;;;;34.34;26.94;96330.50;10412153;28;21021;-60
2022/07/05 14:57:01;;;;;;;1.87;0.70;;;;;;;34.70;27.06;96349.19;10412226;28;20745;-60
2022/07/05 15:02:01;;;;;;;1.17;1.00;;;;;;;35.52;26.01;96351.88;10411485;28;20690;-60
2022/07/05 15:07:02;;;;;;;2.50;0.90;;;;;;;34.81;26.16;96326.00;10409248;28;20310;-59
2022/07/05 15:12:03;;;;;;;2.92;1.10;;;;;;;31.71;29.63;96279.41;10410983;28;20825;-57
2022/07/05 15:17:03;;;;;;;3.00;1.02;;;;;;;31.12;29.87;96285.44;10410821;28;20216;-56
2022/07/05 15:22:04;;;;;;;1.83;0.77;;;;;;;32.89;28.82;96347.22;10411444;28;20189;-55
2022/07/05 15:27:05;;;;;;;2.80;1.00;;;;;;;33.44;28.63;96340.66;10411408;28;20601;-58
2022/07/05 15:32:05;;;;;;;2.30;0.90;;;;;;;33.27;27.85;96318.88;10411113;28;20188;-57
2022/07/05 15:37:06;;;;;;;4.88;1.00;;;;;;;35.16;26.36;96342.25;10409863;28;20242;-57
2022/07/05 15:42:06;;;;;;;2.80;0.95;;;;;;;34.18;26.97;96320.03;10430638;22;20247;-57
2022/07/05 15:47:09;;;;;;;4.80;1.00;;;;;;;33.60;28.20;96346.47;10413000;28;20215;-59
2022/07/05 15:52:09;;;;;;;2.72;1.17;;;;;;;31.39;29.46;96291.94;10408587;28;20989;-57
2022/07/05 15:57:10;;;;;;;2.13;1.00;;;;;;;31.60;29.59;96309.41;10409836;28;20188;-59
2022/07/05 16:02:10;;;;;;;1.52;0.90;;;;;;;31.59;30.49;96331.38;10414158;28;20212;-56
2022/07/05 16:07:10;;;;;;;5.40;0.70;;;;;;;32.11;28.17;96268.78;10408052;28;20772;-58
2022/07/05 16:12:11;;;;;;;12.73;1.20;;;;;;;30.30;32.11;96325.41;10408261;28;20981;-57
2022/07/05 16:17:11;;;;;;;4.22;1.10;;;;;;;29.00;32.25;96289.44;10408239;28;20949;-57
2022/07/05 16:22:11;;;;;;;1.98;1.02;;;;;;;27.60;34.34;96288.81;10407542;28;20240;-60
2022/07/05 16:27:13;;;;;;;2.83;1.30;;;;;;;26.74;35.79;96325.56;10404191;28;20240;-55
2022/07/05 16:32:14;;;;;;;2.90;1.10;;;;;;;27.15;35.50;96349.72;10404924;28;20458;-58
2022/07/05 16:37:14;;;;;;;5.13;1.80;;;;;;;26.26;37.26;96361.50;10406460;28;20192;-59
2022/07/05 16:42:14;;;;;;;3.30;1.40;;;;;;;26.97;35.65;96348.38;10406441;28;20546;-59
2022/07/05 16:47:15;;;;;;;4.20;1.60;;;;;;;27.14;35.22;96348.91;10407288;28;20965;-54
2022/07/05 16:52:15;;;;;;;6.43;1.70;;;;;;;26.63;35.91;96352.44;10407478;28;20830;-55
2022/07/05 16:57:15;;;;;;;11.13;7.80;;;;;;;25.43;38.50;96391.75;10407902;28;20942;-57
2022/07/05 17:02:16;;;;;;;2.75;1.85;;;;;;;25.54;38.59;96400.66;10407786;28;20997;-53
2022/07/05 17:07:16;;;;;;;6.93;2.95;;;;;;;25.73;37.59;96393.78;10408427;28;20220;-53
2022/07/05 17:12:17;;;;;;;13.55;11.20;;;;;;;24.42;39.30;96385.28;10408700;28;20216;-57
2022/07/05 17:17:17;;;;;;;28.13;19.13;;;;;;;24.27;40.27;96410.84;10408509;28;20212;-57
2022/07/05 17:22:17;;;;;;;12.13;9.07;;;;;;;24.31;39.77;96411.16;10407771;28;20205;-55
2022/07/05 17:27:18;;;;;;;19.25;11.82;;;;;;;24.29;40.65;96446.22;10408095;28;20311;-54
2022/07/05 17:32:18;;;;;;;8.82;5.72;;;;;;;23.96;42.06;96476.59;10407213;28;20699;-59
2022/07/05 17:37:18;;;;;;;5.40;2.20;;;;;;;23.95;41.23;96457.06;10408366;28;20188;-58
2022/07/05 17:42:19;;;;;;;15.07;1.77;;;;;;;23.70;41.60;96465.50;10420951;28;20235;-60
2022/07/05 17:47:20;;;;;;;6.93;1.55;;;;;;;23.96;41.75;96463.22;10420388;28;20315;-57
2022/07/05 17:52:20;;;;;;;5.43;1.13;;;;;;;23.83;41.39;96451.78;10420022;28;20219;-56
2022/07/05 17:57:20;;;;;;;78.72;59.53;;;;;;;23.63;42.99;96513.00;10419731;28;20654;-57
2022/07/05 18:02:21;;;;;;;12.98;10.55;;;;;;;23.24;43.99;96518.28;10420722;28;20219;-59
2022/07/05 18:07:21;;;;;;;4.15;1.38;;;;;;;22.79;45.69;96567.97;10419655;28;20220;-56
2022/07/05 18:12:22;;;;;;;5.93;1.38;;;;;;;22.21;48.68;96633.75;10420596;28;20274;-58
2022/07/05 18:17:22;;;;;;;2.78;1.40;;;;;;;22.15;49.63;96656.84;10420832;28;20192;-56
2022/07/05 18:22:22;;;;;;;10.93;1.40;;;;;;;21.89;50.92;96690.09;10418320;28;20215;-58
2022/07/05 18:27:23;;;;;;;5.93;2.60;;;;;;;21.36;53.97;96745.78;10417787;28;20295;-58
2022/07/05 18:32:23;;;;;;;13.38;1.95;;;;;;;21.07;54.43;96730.53;10419640;28;20216;-57
2022/07/05 18:37:23;;;;;;;18.30;2.10;;;;;;;20.34;56.46;96758.66;10420425;28;20246;-55
2022/07/05 18:42:24;;;;;;;24.23;2.17;;;;;;;19.72;58.81;96794.63;10420001;28;20267;-56
2022/07/05 18:47:24;;;;;;;5.65;1.50;;;;;;;19.68;59.11;96795.28;10419357;28;20222;-59
2022/07/05 18:52:25;;;;;;;5.05;1.42;;;;;;;19.46;59.69;96800.88;10413646;28;20205;-58
2022/07/05 18:57:25;;;;;;;6.30;1.40;;;;;;;19.56;60.04;96803.91;10412038;28;20184;-59
2022/07/05 19:02:25;;;;;;;6.57;1.67;;;;;;;19.67;58.73;96777.72;10410493;28;20220;-58
2022/07/05 19:18:03;;;;;;;3.83;1.92;;;;;;;19.14;61.21;96811.44;10411474;28;20223;-59
2022/07/05 19:23:05;;;;;;;3.50;1.58;;;;;;;18.96;61.79;96816.56;10411686;28;20249;-58
2022/07/05 19:28:06;;;;;;;5.35;1.75;;;;;;;18.91;61.97;96819.03;10411990;28;20671;-58
2022/07/05 19:33:06;;;;;;;4.65;1.60;;;;;;;18.76;61.80;96806.78;10410664;28;20299;-58
2022/07/05 19:38:06;;;;;;;6.10;1.63;;;;;;;18.52;63.54;96845.38;10410785;28;20192;-58
2022/07/05 19:43:07;;;;;;;3.72;1.95;;;;;;;18.39;63.70;96845.34;10407817;28;20232;-57
2022/07/05 19:48:07;;;;;;;3.40;2.22;;;;;;;18.13;65.27;96868.16;10409568;28;20220;-59
2022/07/05 19:53:07;;;;;;;4.53;2.10;;;;;;;17.56;67.38;96888.72;10410870;28;20226;-59
2022/07/05 19:58:08;;;;;;;4.60;1.90;;;;;;;17.63;67.39;96889.56;10409537;28;20275;-59
2022/07/05 20:03:09;;;;;;;3.45;2.30;;;;;;;17.60;67.18;96876.72;10409330;28;20220;-54
2022/07/05 20:08:09;;;;;;;5.57;2.17;;;;;;;17.44;68.43;96894.59;10410834;28;20705;-58
2022/07/05 20:13:09;;;;;;;2.25;1.77;;;;;;;17.35;68.11;96886.97;10410335;28;20271;-58
2022/07/05 20:18:10;;;;;;;7.07;2.13;;;;;;;17.34;68.18;96885.34;10409470;28;20550;-59
2022/07/05 20:23:10;;;;;;;11.25;2.20;;;;;;;17.36;69.43;96904.50;10413747;28;20712;-57
2022/07/05 20:28:11;;;;;;;7.47;2.10;;;;;;;17.46;69.95;96920.88;10409881;28;20708;-58
2022/07/05 20:33:12;;;;;;;5.30;2.00;;;;;;;17.19;71.41;96933.91;10410133;28;20291;-55
2022/07/05 20:38:13;;;;;;;5.32;2.60;;;;;;;16.77;73.70;96949.66;10409363;28;20652;-57
2022/07/05 20:43:13;;;;;;;6.65;2.20;;;;;;;17.04;73.97;96949.09;10408839;28;20301;-56
2022/07/05 20:48:14;;;;;;;8.63;2.20;;;;;;;16.79;74.50;96946.00;10409242;28;20327;-56
2022/07/05 20:53:15;;;;;;;3.13;1.83;;;;;;;16.70;75.76;96958.53;10408597;28;20278;-55
2022/07/05 20:58:15;;;;;;;5.97;2.10;;;;;;;16.68;75.21;96949.97;10408746;28;20199;-58
2022/07/05 21:03:16;;;;;;;6.70;2.10;;;;;;;16.70;75.47;96950.59;10407700;28;20208;-54
2022/07/05 21:08:16;;;;;;;10.32;2.38;;;;;;;16.52;76.90;96966.91;10409106;28;20778;-59
2022/07/05 21:13:16;;;;;;;2.28;1.92;;;;;;;16.52;77.56;96973.03;10407672;28;20370;-59
2022/07/05 21:18:17;;;;;;;3.00;1.80;;;;;;;15.86;81.05;96979.16;10407800;28;20192;-58
2022/07/05 21:23:17;;;;;;;4.03;2.10;;;;;;;16.11;80.89;96976.22;10408314;28;20225;-57
2022/07/05 21:28:17;;;;;;;4.38;2.05;;;;;;;16.00;81.13;96981.97;10408101;28;20216;-57
2022/07/05 21:33:18;;;;;;;2.78;1.92;;;;;;;15.64;83.41;96991.41;10408261;28;20212;-59
2022/07/05 21:38:18;;;;;;;3.17;2.30;;;;;;;15.64;84.53;96986.13;10407710;28;20199;-59
2022/07/05 21:43:18;;;;;;;3.90;2.20;;;;;;;15.80;84.25;96990.47;10407333;28;20267;-59
2022/07/05 21:48:19;;;;;;;4.40;2.20;;;;;;;15.79;83.62;96983.53;10407650;28;20227;-58
2022/07/05 21:53:22;;;;;;;3.22;2.00;;;;;;;15.63;84.94;96983.69;10375639;23;20293;-56
2022/07/05 22:09:10;;;;;;;4.75;2.08;;;;;;;15.11;89.76;96980.06;10288812;28;20223;-55
2022/07/05 22:14:11;;;;;;;6.38;2.28;;;;;;;15.10;88.91;96984.53;10288318;28;20732;-55
2022/07/05 22:19:11;;;;;;;7.38;2.67;;;;;;;14.72;93.70;96989.75;10288557;28;20705;-52
2022/07/05 22:24:11;;;;;;;6.47;2.67;;;;;;;14.93;90.71;96975.94;10288874;28;20226;-53
2022/07/05 22:29:12;;;;;;;4.75;2.38;;;;;;;15.07;88.84;96979.59;10295830;28;20326;-52
2022/07/05 22:34:12;;;;;;;3.13;2.38;;;;;;;15.23;88.65;96980.47;10296113;28;20218;-53
2022/07/05 22:39:12;;;;;;;4.28;2.35;;;;;;;15.27;87.70;96987.03;10295477;28;20187;-50
2022/07/05 22:44:13;;;;;;;4.38;2.63;;;;;;;15.43;88.00;97015.88;10295301;28;20589;-52
2022/07/05 22:49:14;;;;;;;6.72;2.30;;;;;;;15.57;92.38;97058.34;10295045;28;20226;-53
2022/07/05 22:54:14;;;;;;;19.20;3.38;;;;;;;15.45;100.00;97113.41;10294833;28;20245;-51
2022/07/05 22:59:15;;;;;;;8.75;2.90;;;;;;;14.74;100.00;97132.00;10295260;28;20201;-51
2022/07/05 23:04:15;;;;;;;5.18;3.25;;;;;;;13.92;100.00;97159.41;10295499;28;20218;-57
2022/07/05 23:09:15;;;;;;;5.30;3.15;;;;;;;13.58;100.00;97163.00;10295249;28;20313;-54
2022/07/05 23:14:16;;;;;;;7.30;3.47;;;;;;;13.27;100.00;97175.97;10294279;28;20214;-57
2022/07/05 23:19:16;;;;;;;5.10;2.83;;;;;;;13.27;100.00;97197.00;10294221;28;20194;-57
2022/07/05 23:29:35;;;;;;;11.85;4.25;;;;;;;12.92;100.00;97191.81;10293745;28;20709;-55
2022/07/05 23:34:36;;;;;;;6.47;4.20;;;;;;;12.78;100.00;97145.91;10293923;28;20305;-57
2022/07/05 23:39:37;;;;;;;9.10;5.57;;;;;;;12.09;100.00;97166.94;10292964;28;20201;-54
2022/07/05 23:44:38;;;;;;;9.23;5.40;;;;;;;12.07;100.00;97176.78;10307823;28;20346;-57
2022/07/05 23:49:38;;;;;;;5.87;4.60;;;;;;;12.16;100.00;97147.94;10293199;28;20226;-53
2022/07/05 23:54:38;;;;;;;7.72;5.43;;;;;;;12.26;100.00;97144.22;10294416;28;20321;-52